createdAt,value
2023-03-26T00:02:05.692Z,94629.69
2023-03-26T00:05:14.992Z,94631.02
2023-03-26T00:07:43.083Z,94627.47
2023-03-26T00:10:11.611Z,94626.47
2023-03-26T00:12:39.880Z,94626.52
2023-03-26T00:15:10.521Z,94623.47
2023-03-26T00:17:38.854Z,94622.33
2023-03-26T00:20:08.491Z,94624.19
2023-03-26T00:22:36.769Z,94627.80
2023-03-26T00:25:07.465Z,94634.80
2023-03-26T00:27:36.133Z,94639.39
2023-03-26T00:30:05.935Z,94644.08
2023-03-26T00:32:34.129Z,94642.35
2023-03-26T00:35:03.892Z,94643.58
2023-03-26T00:37:33.947Z,94642.60
2023-03-26T00:40:06.933Z,94641.37
2023-03-26T00:42:35.778Z,94642.99
2023-03-26T00:45:08.290Z,94640.77
2023-03-26T00:47:36.782Z,94638.04
2023-03-26T00:50:05.639Z,94633.69
2023-03-26T00:52:36.306Z,94633.98
2023-03-26T00:55:04.781Z,94630.12
2023-03-26T00:57:35.918Z,94631.14
2023-03-26T01:00:10.366Z,94630.20
2023-03-26T01:02:39.359Z,94631.35
2023-03-26T01:05:36.124Z,94626.54
2023-03-26T01:08:30.788Z,94627.22
2023-03-26T01:11:03.219Z,94629.42
2023-03-26T01:13:36.084Z,94623.92
2023-03-26T01:16:20.436Z,94626.05
2023-03-26T01:18:49.297Z,94626.38
2023-03-26T01:21:22.929Z,94629.89
2023-03-26T01:24:10.906Z,94627.08
2023-03-26T01:26:54.505Z,94624.66
2023-03-26T01:29:47.100Z,94623.61
2023-03-26T01:32:31.052Z,94628.47
2023-03-26T01:35:13.238Z,94629.23
2023-03-26T01:37:53.665Z,94632.86
2023-03-26T01:40:25.657Z,94626.80
2023-03-26T01:43:04.135Z,94627.73
2023-03-26T01:45:36.386Z,94627.40
2023-03-26T01:48:06.609Z,94623.07
2023-03-26T01:50:34.911Z,94623.73
2023-03-26T01:53:04.468Z,94620.13
2023-03-26T01:55:58.102Z,94613.77
2023-03-26T01:58:30.181Z,94613.05
2023-03-26T02:01:13.574Z,94611.98
2023-03-26T02:03:56.734Z,94611.71
2023-03-26T02:07:09.383Z,94617.99
2023-03-26T02:09:50.899Z,94624.68
2023-03-26T02:12:21.824Z,94632.23
2023-03-26T02:14:50.632Z,94632.70
2023-03-26T02:17:19.267Z,94630.02
2023-03-26T02:19:48.114Z,94631.86
2023-03-26T02:22:16.415Z,94628.54
2023-03-26T02:24:46.087Z,94626.58
2023-03-26T02:27:18.487Z,94625.66
2023-03-26T02:29:47.938Z,94627.14
2023-03-26T02:32:19.355Z,94625.20
2023-03-26T02:34:47.510Z,94628.47
2023-03-26T02:37:19.207Z,94623.11
2023-03-26T02:39:49.199Z,94623.98
2023-03-26T02:42:25.319Z,94625.43
2023-03-26T02:44:53.907Z,94627.59
2023-03-26T02:47:43.431Z,94628.18
2023-03-26T02:50:41.815Z,94632.64
2023-03-26T02:53:37.681Z,94632.23
2023-03-26T02:56:41.661Z,94631.65
2023-03-26T02:59:30.454Z,94637.22
2023-03-26T03:02:19.515Z,94634.50
2023-03-26T03:04:48.329Z,94634.02
2023-03-26T03:07:17.977Z,94633.98
2023-03-26T03:09:46.834Z,94634.94
2023-03-26T03:12:34.049Z,94635.30
2023-03-26T03:15:03.292Z,94635.55
2023-03-26T03:17:31.499Z,94636.17
2023-03-26T03:20:00.350Z,94630.73
2023-03-26T03:22:28.618Z,94630.24
2023-03-26T03:24:57.901Z,94630.35
2023-03-26T03:27:26.464Z,94629.63
2023-03-26T03:30:14.596Z,94639.76
2023-03-26T03:32:58.536Z,94643.38
2023-03-26T03:35:30.259Z,94643.38
2023-03-26T03:38:00.785Z,94642.77
2023-03-26T03:40:29.828Z,94639.00
2023-03-26T03:42:58.236Z,94633.83
2023-03-26T03:45:36.687Z,94636.48
2023-03-26T03:48:11.754Z,94636.46
2023-03-26T03:50:42.623Z,94634.80
2023-03-26T03:53:29.604Z,94642.73
2023-03-26T03:56:02.133Z,94644.77
2023-03-26T03:58:50.755Z,94646.17
2023-03-26T04:01:25.050Z,94643.43
2023-03-26T04:03:59.060Z,94645.20
2023-03-26T04:06:36.755Z,94650.77
2023-03-26T04:09:05.207Z,94647.58
2023-03-26T04:11:33.837Z,94651.99
2023-03-26T04:14:11.890Z,94655.95
2023-03-26T04:16:57.648Z,94655.50
2023-03-26T04:19:27.544Z,94655.43
2023-03-26T04:21:55.875Z,94658.51
2023-03-26T04:24:24.596Z,94651.04
2023-03-26T04:27:31.611Z,94652.99
2023-03-26T04:30:17.248Z,94653.08
2023-03-26T04:32:45.787Z,94656.91
2023-03-26T04:35:16.805Z,94655.56
2023-03-26T04:37:48.248Z,94655.20
2023-03-26T04:40:22.216Z,94655.98
2023-03-26T04:43:19.323Z,94656.07
2023-03-26T04:46:03.048Z,94660.86
2023-03-26T04:48:32.768Z,94660.77
2023-03-26T04:51:01.722Z,94654.95
2023-03-26T04:53:30.029Z,94647.48
2023-03-26T04:56:09.221Z,94653.15
2023-03-26T04:59:00.689Z,94648.15
2023-03-26T05:01:30.910Z,94643.95
2023-03-26T05:03:59.713Z,94642.72
2023-03-26T05:06:30.479Z,94642.40
2023-03-26T05:08:59.372Z,94639.73
2023-03-26T05:11:48.347Z,94639.79
2023-03-26T05:14:17.049Z,94638.98
2023-03-26T05:16:48.653Z,94639.40
2023-03-26T05:19:17.014Z,94636.34
2023-03-26T05:21:46.203Z,94631.08
2023-03-26T05:24:14.837Z,94632.08
2023-03-26T05:26:43.267Z,94635.48
2023-03-26T05:29:13.177Z,94637.67
2023-03-26T05:31:45.682Z,94638.56
2023-03-26T05:34:13.940Z,94637.04
2023-03-26T05:36:42.709Z,94634.63
2023-03-26T05:39:41.496Z,94634.55
2023-03-26T05:42:32.609Z,94634.75
2023-03-26T05:45:17.513Z,94638.91
2023-03-26T05:47:45.842Z,94640.27
2023-03-26T05:50:14.667Z,94643.95
2023-03-26T05:52:44.688Z,94648.97
2023-03-26T05:55:45.900Z,94655.75
2023-03-26T05:58:52.391Z,94662.78
2023-03-26T06:01:45.054Z,94664.23
2023-03-26T06:04:16.241Z,94667.16
2023-03-26T06:07:18.130Z,94661.48
2023-03-26T06:09:53.494Z,94660.28
2023-03-26T06:12:22.126Z,94653.20
2023-03-26T06:14:50.779Z,94651.44
2023-03-26T06:17:30.931Z,94650.84
2023-03-26T06:20:09.271Z,94656.43
2023-03-26T06:22:44.057Z,94660.27
2023-03-26T06:25:21.213Z,94665.53
2023-03-26T06:28:13.314Z,94668.28
2023-03-26T06:31:01.650Z,94671.61
2023-03-26T06:33:39.075Z,94672.84
2023-03-26T06:36:07.886Z,94673.27
2023-03-26T06:38:36.608Z,94678.21
2023-03-26T06:41:07.874Z,94682.31
2023-03-26T06:43:52.994Z,94680.05
2023-03-26T06:46:39.994Z,94678.87
2023-03-26T06:49:26.948Z,94672.33
2023-03-26T06:52:15.477Z,94670.54
2023-03-26T06:55:01.986Z,94676.03
2023-03-26T06:57:50.806Z,94674.91
2023-03-26T07:00:54.755Z,94675.55
2023-03-26T07:03:47.026Z,94676.11
2023-03-26T07:06:34.203Z,94677.63
2023-03-26T07:09:02.623Z,94678.64
2023-03-26T07:11:39.820Z,94685.98
2023-03-26T07:14:34.319Z,94692.48
2023-03-26T07:17:12.231Z,94696.16
2023-03-26T07:20:08.252Z,94697.02
2023-03-26T07:22:37.548Z,94693.19
2023-03-26T07:25:15.736Z,94689.63
2023-03-26T07:28:30.778Z,94690.56
2023-03-26T07:31:34.978Z,94686.07
2023-03-26T07:35:02.432Z,94682.70
2023-03-26T07:38:35.375Z,94688.42
2023-03-26T07:41:35.156Z,94683.02
2023-03-26T07:44:41.067Z,94682.58
2023-03-26T07:47:36.842Z,94671.42
2023-03-26T07:50:25.569Z,94672.16
2023-03-26T07:52:59.845Z,94667.11
2023-03-26T07:55:34.178Z,94662.56
2023-03-26T07:58:26.790Z,94664.61
2023-03-26T08:01:24.221Z,94658.38
2023-03-26T08:04:23.443Z,94662.37
2023-03-26T08:08:02.994Z,94662.40
2023-03-26T08:10:54.010Z,94657.25
2023-03-26T08:14:08.044Z,94657.73
2023-03-26T08:16:58.958Z,94650.07
2023-03-26T08:19:45.603Z,94646.27
2023-03-26T08:22:26.683Z,94641.42
2023-03-26T08:25:19.633Z,94649.48
2023-03-26T08:28:07.588Z,94647.77
2023-03-26T08:30:35.920Z,94652.04
2023-03-26T08:33:16.876Z,94650.95
2023-03-26T08:35:46.782Z,94653.41
2023-03-26T08:38:19.594Z,94651.71
2023-03-26T08:41:12.600Z,94648.99
2023-03-26T08:43:58.961Z,94647.35
2023-03-26T08:46:57.414Z,94647.11
2023-03-26T08:50:02.433Z,94646.85
2023-03-26T08:52:36.378Z,94650.48
2023-03-26T08:55:23.280Z,94658.36
2023-03-26T08:58:39.255Z,94664.55
2023-03-26T09:01:38.232Z,94671.56
2023-03-26T09:04:21.729Z,94679.09
2023-03-26T09:07:14.322Z,94683.95
2023-03-26T09:10:06.647Z,94683.00
2023-03-26T09:13:08.116Z,94683.21
2023-03-26T09:16:07.770Z,94685.42
2023-03-26T09:19:01.055Z,94678.75
2023-03-26T09:21:53.428Z,94675.30
2023-03-26T09:25:00.245Z,94675.66
2023-03-26T09:27:56.292Z,94672.32
2023-03-26T09:30:47.111Z,94671.64
2023-03-26T09:33:42.853Z,94672.36
2023-03-26T09:36:20.255Z,94666.86
2023-03-26T09:39:17.904Z,94666.98
2023-03-26T09:41:51.865Z,94671.53
2023-03-26T09:44:33.653Z,94672.52
2023-03-26T09:47:27.801Z,94669.49
2023-03-26T09:50:21.774Z,94665.13
2023-03-26T09:53:11.111Z,94666.05
2023-03-26T09:55:40.476Z,94665.78
2023-03-26T09:58:27.559Z,94667.92
2023-03-26T10:01:09.040Z,94667.45
2023-03-26T10:03:46.256Z,94670.02
2023-03-26T10:06:26.296Z,94666.80
2023-03-26T10:08:54.458Z,94671.23
2023-03-26T10:11:35.729Z,94675.58
2023-03-26T10:14:16.253Z,94672.45
2023-03-26T10:17:06.389Z,94673.54
2023-03-26T10:19:44.074Z,94675.90
2023-03-26T10:22:54.113Z,94671.27
2023-03-26T10:25:48.013Z,94670.77
2023-03-26T10:28:40.835Z,94666.05
2023-03-26T10:31:42.829Z,94666.83
2023-03-26T10:34:30.121Z,94669.30
2023-03-26T10:37:01.091Z,94664.16
2023-03-26T10:39:47.258Z,94665.23
2023-03-26T10:42:33.855Z,94658.75
2023-03-26T10:45:26.696Z,94660.68
2023-03-26T10:48:03.787Z,94656.92
2023-03-26T10:50:51.046Z,94656.42
2023-03-26T10:53:31.247Z,94657.73
2023-03-26T10:56:28.536Z,94655.27
2023-03-26T10:58:57.349Z,94655.48
2023-03-26T11:01:49.969Z,94659.66
2023-03-26T11:04:29.549Z,94656.36
2023-03-26T11:07:18.013Z,94648.73
2023-03-26T11:10:05.695Z,94644.39
2023-03-26T11:13:00.363Z,94647.03
2023-03-26T11:15:39.445Z,94647.75
2023-03-26T11:18:29.116Z,94649.54
2023-03-26T11:21:19.596Z,94647.78
2023-03-26T11:24:20.411Z,94652.89
2023-03-26T11:26:49.299Z,94654.52
2023-03-26T11:29:39.047Z,94651.14
2023-03-26T11:32:45.978Z,94648.27
2023-03-26T11:35:39.670Z,94650.86
2023-03-26T11:38:24.782Z,94648.36
2023-03-26T11:40:56.277Z,94652.94
2023-03-26T11:44:02.876Z,94653.18
2023-03-26T11:46:35.744Z,94654.69
2023-03-26T11:49:09.320Z,94657.58
2023-03-26T11:51:39.666Z,94655.98
2023-03-26T11:54:10.973Z,94653.38
2023-03-26T11:57:04.558Z,94652.90
2023-03-26T11:59:55.431Z,94654.22
2023-03-26T12:02:34.453Z,94648.56
2023-03-26T12:05:26.540Z,94649.48
2023-03-26T12:08:01.025Z,94652.27
2023-03-26T12:10:29.603Z,94650.67
2023-03-26T12:13:06.570Z,94653.35
2023-03-26T12:15:43.969Z,94653.82
2023-03-26T12:18:25.926Z,94649.03
2023-03-26T12:21:14.232Z,94645.05
2023-03-26T12:23:43.941Z,94634.17
2023-03-26T12:26:42.583Z,94628.20
2023-03-26T12:29:14.044Z,94627.61
2023-03-26T12:31:54.682Z,94618.89
2023-03-26T12:34:35.835Z,94625.56
2023-03-26T12:37:07.010Z,94620.67
2023-03-26T12:40:10.632Z,94611.77
2023-03-26T12:44:49.337Z,94605.18
2023-03-26T12:45:23.027Z,94598.02
2023-03-26T12:48:01.599Z,94596.85
2023-03-26T12:50:58.390Z,94598.16
2023-03-26T12:53:38.625Z,94595.33
2023-03-26T12:56:27.402Z,94593.73
2023-03-26T12:59:16.391Z,94596.29
2023-03-26T13:01:47.669Z,94591.27
2023-03-26T13:04:18.585Z,94590.85
2023-03-26T13:07:00.227Z,94587.17
2023-03-26T13:09:40.994Z,94582.40
2023-03-26T13:12:15.987Z,94583.48
2023-03-26T13:15:02.934Z,94585.13
2023-03-26T13:17:58.344Z,94584.59
2023-03-26T13:20:45.432Z,94582.70
2023-03-26T13:23:32.338Z,94574.70
2023-03-26T13:26:08.727Z,94568.27
2023-03-26T13:28:49.727Z,94560.93
2023-03-26T13:31:30.455Z,94563.92
2023-03-26T13:34:11.142Z,94554.36
2023-03-26T13:36:52.015Z,94549.27
2023-03-26T13:39:30.199Z,94548.06
2023-03-26T13:42:14.938Z,94543.39
2023-03-26T13:44:48.796Z,94537.60
2023-03-26T13:47:22.548Z,94538.69
2023-03-26T13:49:58.718Z,94537.57
2023-03-26T13:52:53.153Z,94541.48
2023-03-26T13:55:50.860Z,94541.37
2023-03-26T13:58:57.422Z,94539.63
2023-03-26T14:01:41.394Z,94538.90
2023-03-26T14:04:32.300Z,94541.13
2023-03-26T14:07:13.398Z,94536.52
2023-03-26T14:09:53.168Z,94533.22
2023-03-26T14:12:44.717Z,94541.79
2023-03-26T14:15:51.313Z,94551.16
2023-03-26T14:18:30.816Z,94559.83
2023-03-26T14:21:09.794Z,94565.65
2023-03-26T14:24:12.910Z,94562.30
2023-03-26T14:27:03.405Z,94560.49
2023-03-26T14:29:57.406Z,94557.80
2023-03-26T14:32:38.051Z,94551.04
2023-03-26T14:35:44.645Z,94550.57
2023-03-26T14:38:47.048Z,94540.48
2023-03-26T14:41:25.640Z,94537.14
2023-03-26T14:44:21.795Z,94543.36
2023-03-26T14:46:54.010Z,94535.33
2023-03-26T14:49:34.219Z,94526.21
2023-03-26T14:52:11.389Z,94527.92
2023-03-26T14:54:45.683Z,94524.90
2023-03-26T14:57:43.829Z,94524.80
2023-03-26T15:00:20.959Z,94519.67
2023-03-26T15:03:20.690Z,94517.41
2023-03-26T15:06:15.495Z,94511.80
2023-03-26T15:09:21.539Z,94509.30
2023-03-26T15:12:15.799Z,94505.77
2023-03-26T15:15:01.305Z,94506.95
2023-03-26T15:17:38.743Z,94506.45
2023-03-26T15:20:43.586Z,94506.43
2023-03-26T15:23:42.886Z,94503.02
2023-03-26T15:26:59.338Z,94503.25
2023-03-26T15:29:49.548Z,94498.65
2023-03-26T15:32:58.263Z,94493.45
2023-03-26T15:35:43.627Z,94490.02
2023-03-26T15:38:51.798Z,94488.38
2023-03-26T15:41:39.736Z,94483.16
2023-03-26T15:44:31.704Z,94482.92
2023-03-26T15:47:47.567Z,94475.20
2023-03-26T15:50:38.132Z,94471.38
2023-03-26T15:53:14.749Z,94469.52
2023-03-26T15:56:06.763Z,94471.66
2023-03-26T15:58:46.696Z,94469.54
2023-03-26T16:01:36.392Z,94467.49
2023-03-26T16:04:14.730Z,94469.11
2023-03-26T16:06:48.874Z,94467.66
2023-03-26T16:09:43.442Z,94469.58
2023-03-26T16:12:12.045Z,94469.29
2023-03-26T16:14:44.797Z,94466.52
2023-03-26T16:17:17.922Z,94470.20
2023-03-26T16:19:46.087Z,94466.86
2023-03-26T16:22:32.629Z,94468.00
2023-03-26T16:25:27.913Z,94474.71
2023-03-26T16:28:13.017Z,94477.22
2023-03-26T16:30:42.429Z,94481.31
2023-03-26T16:33:16.642Z,94479.85
2023-03-26T16:36:04.712Z,94480.28
2023-03-26T16:39:10.915Z,94480.64
2023-03-26T16:41:39.171Z,94494.14
2023-03-26T16:44:41.335Z,94495.96
2023-03-26T16:47:43.220Z,94491.06
2023-03-26T16:50:33.206Z,94492.69
2023-03-26T16:53:29.929Z,94496.48
2023-03-26T16:56:16.898Z,94499.17
2023-03-26T16:58:48.153Z,94503.80
2023-03-26T17:01:27.430Z,94502.10
2023-03-26T17:03:59.861Z,94505.05
2023-03-26T17:06:37.077Z,94508.65
2023-03-26T17:09:28.901Z,94508.14
2023-03-26T17:12:25.486Z,94506.42
2023-03-26T17:15:12.011Z,94506.58
2023-03-26T17:18:05.206Z,94508.44
2023-03-26T17:20:56.124Z,94502.43
2023-03-26T17:23:39.648Z,94499.50
2023-03-26T17:26:48.575Z,94494.95
2023-03-26T17:29:29.602Z,94496.41
2023-03-26T17:32:11.594Z,94494.45
2023-03-26T17:34:46.818Z,94490.39
2023-03-26T17:37:23.912Z,94489.75
2023-03-26T17:39:57.789Z,94487.54
2023-03-26T17:42:33.952Z,94489.26
2023-03-26T17:45:11.195Z,94488.55
2023-03-26T17:47:59.119Z,94483.72
2023-03-26T17:50:32.671Z,94477.97
2023-03-26T17:53:05.075Z,94476.73
2023-03-26T17:55:38.013Z,94474.23
2023-03-26T17:58:37.780Z,94477.72
2023-03-26T18:01:32.376Z,94476.89
2023-03-26T18:04:04.306Z,94482.45
2023-03-26T18:06:44.864Z,94482.20
2023-03-26T18:09:31.633Z,94474.00
2023-03-26T18:12:27.628Z,94465.56
2023-03-26T18:15:32.617Z,94467.89
2023-03-26T18:18:18.153Z,94470.02
2023-03-26T18:20:49.342Z,94468.84
2023-03-26T18:23:48.081Z,94468.05
2023-03-26T18:26:32.133Z,94467.92
2023-03-26T18:29:12.316Z,94466.30
2023-03-26T18:31:45.873Z,94463.25
2023-03-26T18:34:18.994Z,94459.39
2023-03-26T18:37:01.202Z,94457.88
2023-03-26T18:39:29.586Z,94456.66
2023-03-26T18:41:58.434Z,94455.07
2023-03-26T18:44:27.763Z,94456.78
2023-03-26T18:46:56.421Z,94450.64
2023-03-26T18:49:27.545Z,94450.45
2023-03-26T18:51:57.511Z,94449.08
2023-03-26T18:54:34.397Z,94444.70
2023-03-26T18:57:15.741Z,94443.05
2023-03-26T18:59:45.638Z,94438.98
2023-03-26T19:02:16.370Z,94434.81
2023-03-26T19:04:47.088Z,94431.09
2023-03-26T19:07:25.312Z,94433.20
2023-03-26T19:09:56.595Z,94432.45
2023-03-26T19:12:34.089Z,94423.55
2023-03-26T19:15:11.811Z,94420.70
2023-03-26T19:17:53.557Z,94415.17
2023-03-26T19:20:26.593Z,94412.58
2023-03-26T19:22:57.041Z,94410.55
2023-03-26T19:25:33.836Z,94411.37
2023-03-26T19:28:03.153Z,94403.91
2023-03-26T19:30:40.106Z,94400.54
2023-03-26T19:33:18.883Z,94393.40
2023-03-26T19:35:54.782Z,94383.05
2023-03-26T19:38:28.064Z,94378.68
2023-03-26T19:40:58.086Z,94382.65
2023-03-26T19:43:27.163Z,94374.08
2023-03-26T19:46:01.246Z,94372.56
2023-03-26T19:48:45.332Z,94367.91
2023-03-26T19:51:30.940Z,94361.48
2023-03-26T19:54:03.280Z,94365.89
2023-03-26T19:56:31.984Z,94363.48
2023-03-26T19:59:00.420Z,94363.65
2023-03-26T20:01:30.758Z,94361.93
2023-03-26T20:04:05.253Z,94359.45
2023-03-26T20:06:42.566Z,94360.72
2023-03-26T20:09:13.750Z,94360.95
2023-03-26T20:11:42.327Z,94358.28
2023-03-26T20:14:16.732Z,94359.52
2023-03-26T20:16:46.238Z,94359.74
2023-03-26T20:19:15.501Z,94353.90
2023-03-26T20:21:44.959Z,94352.52
2023-03-26T20:24:16.295Z,94350.36
2023-03-26T20:26:46.084Z,94341.91
2023-03-26T20:29:15.486Z,94336.45
2023-03-26T20:31:44.413Z,94337.57
2023-03-26T20:34:20.059Z,94340.96
2023-03-26T20:36:54.452Z,94337.21
2023-03-26T20:39:26.394Z,94337.61
2023-03-26T20:41:56.448Z,94325.98
2023-03-26T20:44:26.944Z,94321.50
2023-03-26T20:46:57.408Z,94315.76
2023-03-26T20:49:29.304Z,94309.98
2023-03-26T20:51:57.868Z,94308.59
2023-03-26T20:54:27.249Z,94305.50
2023-03-26T20:56:55.754Z,94308.98
2023-03-26T20:59:27.576Z,94312.09
2023-03-26T21:01:58.073Z,94308.18
2023-03-26T21:04:27.493Z,94309.50
2023-03-26T21:07:07.153Z,94306.69
2023-03-26T21:09:44.971Z,94302.19
2023-03-26T21:12:34.305Z,94304.09
2023-03-26T21:15:09.985Z,94301.54
2023-03-26T21:17:42.246Z,94300.35
2023-03-26T21:20:13.395Z,94296.23
2023-03-26T21:23:10.120Z,94293.61
2023-03-26T21:25:46.177Z,94290.04
2023-03-26T21:28:29.169Z,94287.17
2023-03-26T21:31:20.125Z,94283.23
2023-03-26T21:33:49.722Z,94279.86
2023-03-26T21:36:20.050Z,94273.37
2023-03-26T21:38:50.671Z,94267.45
2023-03-26T21:41:36.481Z,94263.11
2023-03-26T21:44:04.768Z,94255.02
2023-03-26T21:46:33.506Z,94248.72
2023-03-26T21:49:02.268Z,94244.32
2023-03-26T21:51:32.075Z,94239.26
2023-03-26T21:54:01.202Z,94237.11
2023-03-26T21:56:37.513Z,94234.58
2023-03-26T21:59:19.314Z,94234.16
2023-03-26T22:02:13.858Z,94228.99
2023-03-26T22:04:52.065Z,94226.41
2023-03-26T22:07:50.143Z,94228.82
2023-03-26T22:10:18.953Z,94219.59
2023-03-26T22:12:47.007Z,94214.86
2023-03-26T22:15:15.709Z,94213.14
2023-03-26T22:17:44.279Z,94211.77
2023-03-26T22:20:14.984Z,94203.71
2023-03-26T22:22:49.227Z,94187.87
2023-03-26T22:25:19.065Z,94179.79
2023-03-26T22:27:49.239Z,94171.84
2023-03-26T22:30:18.113Z,94162.89
2023-03-26T22:32:47.107Z,94155.54
2023-03-26T22:35:15.672Z,94150.92
2023-03-26T22:37:43.985Z,94154.16
2023-03-26T22:40:15.277Z,94153.84
2023-03-26T22:42:43.569Z,94161.16
2023-03-26T22:45:12.561Z,94165.95
2023-03-26T22:47:40.931Z,94170.08
2023-03-26T22:50:09.944Z,94165.84
2023-03-26T22:52:40.790Z,94158.23
2023-03-26T22:55:11.824Z,94155.13
2023-03-26T22:57:41.417Z,94151.70
2023-03-26T23:00:19.570Z,94136.32
2023-03-26T23:02:47.649Z,94135.34
2023-03-26T23:05:19.066Z,94131.33
2023-03-26T23:07:48.961Z,94128.80
2023-03-26T23:10:17.239Z,94125.08
2023-03-26T23:12:45.736Z,94124.30
2023-03-26T23:15:14.247Z,94124.31
2023-03-26T23:17:42.612Z,94122.36
2023-03-26T23:20:14.968Z,94121.89
2023-03-26T23:22:43.559Z,94122.27
2023-03-26T23:25:12.304Z,94126.62
2023-03-26T23:27:41.601Z,94117.13
2023-03-26T23:30:11.014Z,94112.08
2023-03-26T23:32:39.337Z,94107.88
2023-03-26T23:35:08.013Z,94103.97
2023-03-26T23:37:36.213Z,94099.77
2023-03-26T23:40:10.352Z,94094.27
2023-03-26T23:42:38.844Z,94094.00
2023-03-26T23:45:08.729Z,94088.29
2023-03-26T23:47:37.500Z,94077.78
2023-03-26T23:50:06.552Z,94071.03
2023-03-26T23:52:34.874Z,94060.89
2023-03-26T23:55:03.693Z,94056.00
2023-03-26T23:57:31.947Z,94049.84
